sensor_id;sensor_type;location;lat;lon;timestamp;temperature;humidity
21805;DHT22;11064;47.102;15.452;2023-09-19T04:03:48;15.40;99.90
21805;DHT22;11064;47.102;15.452;2023-09-19T04:06:17;15.40;99.90
21805;DHT22;11064;47.102;15.452;2023-09-19T04:08:43;15.40;99.90
21805;DHT22;11064;47.102;15.452;2023-09-19T04:11:10;15.40;99.90
21805;DHT22;11064;47.102;15.452;2023-09-19T04:13:36;15.40;99.90
21805;DHT22;11064;47.102;15.452;2023-09-19T04:16:02;15.30;99.90
21805;DHT22;11064;47.102;15.452;2023-09-19T04:18:33;15.30;99.90
21805;DHT22;11064;47.102;15.452;2023-09-19T04:20:59;15.40;99.90
21805;DHT22;11064;47.102;15.452;2023-09-19T04:23:28;15.40;99.90
21805;DHT22;11064;47.102;15.452;2023-09-19T04:25:53;15.40;99.90
21805;DHT22;11064;47.102;15.452;2023-09-19T04:28:19;15.40;99.90
21805;DHT22;11064;47.102;15.452;2023-09-19T04:30:45;15.40;99.90
21805;DHT22;11064;47.102;15.452;2023-09-19T04:33:11;15.30;99.90
21805;DHT22;11064;47.102;15.452;2023-09-19T04:35:40;15.30;99.90
21805;DHT22;11064;47.102;15.452;2023-09-19T04:38:08;15.30;99.90
21805;DHT22;11064;47.102;15.452;2023-09-19T04:40:34;15.30;99.90
21805;DHT22;11064;47.102;15.452;2023-09-19T04:43:00;15.20;99.90
21805;DHT22;11064;47.102;15.452;2023-09-19T04:45:27;15.20;99.90
21805;DHT22;11064;47.102;15.452;2023-09-19T04:47:54;15.20;99.90
21805;DHT22;11064;47.102;15.452;2023-09-19T04:50:20;15.10;99.90
21805;DHT22;11064;47.102;15.452;2023-09-19T04:52:50;15.20;99.90
21805;DHT22;11064;47.102;15.452;2023-09-19T04:55:19;15.20;99.90
21805;DHT22;11064;47.102;15.452;2023-09-19T04:57:47;15.10;99.90
21805;DHT22;11064;47.102;15.452;2023-09-19T05:00:20;15.20;99.90
21805;DHT22;11064;47.102;15.452;2023-09-19T05:02:52;15.10;99.90
21805;DHT22;11064;47.102;15.452;2023-09-19T05:05:19;15.20;99.90
21805;DHT22;11064;47.102;15.452;2023-09-19T05:07:45;15.20;99.90
21805;DHT22;11064;47.102;15.452;2023-09-19T05:10:12;15.10;99.90
21805;DHT22;11064;47.102;15.452;2023-09-19T05:12:38;15.10;99.90
21805;DHT22;11064;47.102;15.452;2023-09-19T05:15:07;15.10;99.90
21805;DHT22;11064;47.102;15.452;2023-09-19T05:17:34;15.20;99.90
21805;DHT22;11064;47.102;15.452;2023-09-19T05:20:03;15.20;99.90
21805;DHT22;11064;47.102;15.452;2023-09-19T05:22:42;15.20;99.90
21805;DHT22;11064;47.102;15.452;2023-09-19T05:25:09;15.20;99.90
21805;DHT22;11064;47.102;15.452;2023-09-19T05:27:36;15.20;99.90
21805;DHT22;11064;47.102;15.452;2023-09-19T05:30:02;15.30;99.90
21805;DHT22;11064;47.102;15.452;2023-09-19T05:32:28;15.30;99.90
21805;DHT22;11064;47.102;15.452;2023-09-19T05:34:54;15.40;99.90
21805;DHT22;11064;47.102;15.452;2023-09-19T05:37:22;15.40;99.90
21805;DHT22;11064;47.102;15.452;2023-09-19T05:39:49;15.50;99.90
21805;DHT22;11064;47.102;15.452;2023-09-19T05:42:15;15.50;99.90
21805;DHT22;11064;47.102;15.452;2023-09-19T05:44:41;15.60;99.90
21805;DHT22;11064;47.102;15.452;2023-09-19T05:47:06;15.60;99.90
21805;DHT22;11064;47.102;15.452;2023-09-19T05:49:37;15.60;99.90
21805;DHT22;11064;47.102;15.452;2023-09-19T05:52:05;15.70;99.90
21805;DHT22;11064;47.102;15.452;2023-09-19T05:54:32;15.80;99.90
21805;DHT22;11064;47.102;15.452;2023-09-19T05:57:00;15.80;99.90
21805;DHT22;11064;47.102;15.452;2023-09-19T05:59:27;15.90;99.90
21805;DHT22;11064;47.102;15.452;2023-09-19T06:01:53;15.90;99.90
21805;DHT22;11064;47.102;15.452;2023-09-19T06:04:19;16.00;99.90
21805;DHT22;11064;47.102;15.452;2023-09-19T06:06:45;16.10;99.90
21805;DHT22;11064;47.102;15.452;2023-09-19T06:09:14;16.30;99.90
21805;DHT22;11064;47.102;15.452;2023-09-19T06:11:42;16.40;99.90
21805;DHT22;11064;47.102;15.452;2023-09-19T06:14:08;16.50;99.90
21805;DHT22;11064;47.102;15.452;2023-09-19T06:16:35;16.60;99.90
21805;DHT22;11064;47.102;15.452;2023-09-19T06:19:03;16.70;99.90
21805;DHT22;11064;47.102;15.452;2023-09-19T06:21:32;16.70;99.90
21805;DHT22;11064;47.102;15.452;2023-09-19T06:23:57;16.90;99.90
21805;DHT22;11064;47.102;15.452;2023-09-19T06:26:24;17.00;99.90
21805;DHT22;11064;47.102;15.452;2023-09-19T06:28:52;17.20;99.90
21805;DHT22;11064;47.102;15.452;2023-09-19T06:31:18;17.40;99.90
21805;DHT22;11064;47.102;15.452;2023-09-19T06:33:46;17.40;99.90
21805;DHT22;11064;47.102;15.452;2023-09-19T06:36:12;17.40;99.90
21805;DHT22;11064;47.102;15.452;2023-09-19T06:38:38;17.30;99.90
21805;DHT22;11064;47.102;15.452;2023-09-19T06:41:05;17.30;99.90
21805;DHT22;11064;47.102;15.452;2023-09-19T06:43:32;17.30;99.90
21805;DHT22;11064;47.102;15.452;2023-09-19T06:46:03;17.20;99.90
21805;DHT22;11064;47.102;15.452;2023-09-19T06:48:29;17.10;99.90
21805;DHT22;11064;47.102;15.452;2023-09-19T06:50:56;17.10;99.90
21805;DHT22;11064;47.102;15.452;2023-09-19T06:53:24;17.00;99.90
21805;DHT22;11064;47.102;15.452;2023-09-19T06:55:51;17.20;99.90
21805;DHT22;11064;47.102;15.452;2023-09-19T06:58:17;17.20;99.90
21805;DHT22;11064;47.102;15.452;2023-09-19T07:00:43;17.30;99.90
21805;DHT22;11064;47.102;15.452;2023-09-19T07:03:10;17.40;99.90
21805;DHT22;11064;47.102;15.452;2023-09-19T07:05:38;17.50;99.90
21805;DHT22;11064;47.102;15.452;2023-09-19T07:08:05;17.80;99.90
21805;DHT22;11064;47.102;15.452;2023-09-19T07:10:32;18.00;99.90
21805;DHT22;11064;47.102;15.452;2023-09-19T07:13:06;18.20;99.90
21805;DHT22;11064;47.102;15.452;2023-09-19T07:15:35;18.20;99.90
21805;DHT22;11064;47.102;15.452;2023-09-19T07:18:26;18.20;99.90
21805;DHT22;11064;47.102;15.452;2023-09-19T07:20:57;18.00;99.90
21805;DHT22;11064;47.102;15.452;2023-09-19T07:23:26;18.00;99.90
21805;DHT22;11064;47.102;15.452;2023-09-19T07:25:56;17.80;99.90
21805;DHT22;11064;47.102;15.452;2023-09-19T07:28:22;17.60;99.90
21805;DHT22;11064;47.102;15.452;2023-09-19T07:30:48;17.30;99.90
21805;DHT22;11064;47.102;15.452;2023-09-19T07:33:14;17.20;99.90
21805;DHT22;11064;47.102;15.452;2023-09-19T07:35:40;17.40;99.90
21805;DHT22;11064;47.102;15.452;2023-09-19T07:38:06;17.50;99.90
21805;DHT22;11064;47.102;15.452;2023-09-19T07:40:33;17.60;99.90
21805;DHT22;11064;47.102;15.452;2023-09-19T07:42:59;17.80;99.90
21805;DHT22;11064;47.102;15.452;2023-09-19T07:45:32;17.70;99.90
21805;DHT22;11064;47.102;15.452;2023-09-19T07:47:59;17.80;99.90
21805;DHT22;11064;47.102;15.452;2023-09-19T07:50:30;17.90;99.90
21805;DHT22;11064;47.102;15.452;2023-09-19T07:52:56;17.90;99.90
21805;DHT22;11064;47.102;15.452;2023-09-19T07:55:22;17.90;99.90
21805;DHT22;11064;47.102;15.452;2023-09-19T07:57:54;18.00;99.90
21805;DHT22;11064;47.102;15.452;2023-09-19T08:00:20;18.20;99.90
21805;DHT22;11064;47.102;15.452;2023-09-19T08:02:46;18.50;99.90
21805;DHT22;11064;47.102;15.452;2023-09-19T08:05:13;18.80;99.90
21805;DHT22;11064;47.102;15.452;2023-09-19T08:07:44;19.10;99.90
21805;DHT22;11064;47.102;15.452;2023-09-19T08:10:22;19.40;99.90
21805;DHT22;11064;47.102;15.452;2023-09-19T08:12:48;19.40;99.90
21805;DHT22;11064;47.102;15.452;2023-09-19T08:15:19;19.70;99.90
21805;DHT22;11064;47.102;15.452;2023-09-19T08:17:45;19.50;99.90
21805;DHT22;11064;47.102;15.452;2023-09-19T08:20:12;19.50;99.90
21805;DHT22;11064;47.102;15.452;2023-09-19T08:22:49;19.60;99.90
21805;DHT22;11064;47.102;15.452;2023-09-19T08:25:18;19.80;99.90
21805;DHT22;11064;47.102;15.452;2023-09-19T08:27:45;19.90;99.90
21805;DHT22;11064;47.102;15.452;2023-09-19T08:30:20;19.90;99.90
21805;DHT22;11064;47.102;15.452;2023-09-19T08:32:50;19.90;99.90
21805;DHT22;11064;47.102;15.452;2023-09-19T08:35:16;19.90;99.90
21805;DHT22;11064;47.102;15.452;2023-09-19T08:37:44;20.20;99.90
21805;DHT22;11064;47.102;15.452;2023-09-19T08:40:13;20.60;99.90
21805;DHT22;11064;47.102;15.452;2023-09-19T08:42:49;20.70;99.90
21805;DHT22;11064;47.102;15.452;2023-09-19T08:45:16;20.60;99.90
21805;DHT22;11064;47.102;15.452;2023-09-19T08:51:03;20.20;99.90
21805;DHT22;11064;47.102;15.452;2023-09-19T08:53:35;20.10;99.90
21805;DHT22;11064;47.102;15.452;2023-09-19T08:56:10;20.10;99.90
21805;DHT22;11064;47.102;15.452;2023-09-19T08:58:46;20.30;99.90
21805;DHT22;11064;47.102;15.452;2023-09-19T09:01:15;20.40;99.90
21805;DHT22;11064;47.102;15.452;2023-09-19T09:03:43;20.60;99.90
21805;DHT22;11064;47.102;15.452;2023-09-19T09:06:14;20.90;99.90
21805;DHT22;11064;47.102;15.452;2023-09-19T09:08:42;21.20;99.90
21805;DHT22;11064;47.102;15.452;2023-09-19T09:11:08;21.60;99.90
21805;DHT22;11064;47.102;15.452;2023-09-19T09:13:36;21.70;99.90
21805;DHT22;11064;47.102;15.452;2023-09-19T09:16:03;21.60;99.90
21805;DHT22;11064;47.102;15.452;2023-09-19T09:18:29;21.90;99.90
21805;DHT22;11064;47.102;15.452;2023-09-19T09:20:58;22.10;99.90
21805;DHT22;11064;47.102;15.452;2023-09-19T09:23:23;22.30;99.90
21805;DHT22;11064;47.102;15.452;2023-09-19T09:25:55;22.70;99.90
21805;DHT22;11064;47.102;15.452;2023-09-19T09:28:26;23.10;99.90
21805;DHT22;11064;47.102;15.452;2023-09-19T09:30:54;23.20;99.90
21805;DHT22;11064;47.102;15.452;2023-09-19T09:33:21;23.50;99.90
21805;DHT22;11064;47.102;15.452;2023-09-19T09:35:58;23.70;99.90
21805;DHT22;11064;47.102;15.452;2023-09-19T09:38:30;23.80;99.90
21805;DHT22;11064;47.102;15.452;2023-09-19T09:41:09;23.90;99.90
21805;DHT22;11064;47.102;15.452;2023-09-19T09:43:42;24.10;99.90
21805;DHT22;11064;47.102;15.452;2023-09-19T09:46:16;24.40;99.90
21805;DHT22;11064;47.102;15.452;2023-09-19T09:51:40;24.00;99.90
21805;DHT22;11064;47.102;15.452;2023-09-19T09:54:18;23.90;99.90
21805;DHT22;11064;47.102;15.452;2023-09-19T09:56:58;23.90;99.90
21805;DHT22;11064;47.102;15.452;2023-09-19T09:59:53;23.90;99.90
21805;DHT22;11064;47.102;15.452;2023-09-19T10:02:25;23.80;99.90
21805;DHT22;11064;47.102;15.452;2023-09-19T10:04:55;23.30;99.90
21805;DHT22;11064;47.102;15.452;2023-09-19T10:07:25;22.80;99.90
21805;DHT22;11064;47.102;15.452;2023-09-19T10:09:53;22.70;99.90
21805;DHT22;11064;47.102;15.452;2023-09-19T10:12:27;22.70;99.90
21805;DHT22;11064;47.102;15.452;2023-09-19T10:14:57;22.70;99.90
21805;DHT22;11064;47.102;15.452;2023-09-19T10:17:27;22.70;99.90
21805;DHT22;11064;47.102;15.452;2023-09-19T10:19:56;22.50;99.90
21805;DHT22;11064;47.102;15.452;2023-09-19T10:22:26;22.70;99.90
21805;DHT22;11064;47.102;15.452;2023-09-19T10:24:57;22.50;99.90
21805;DHT22;11064;47.102;15.452;2023-09-19T10:27:26;22.70;99.90
21805;DHT22;11064;47.102;15.452;2023-09-19T10:29:53;22.90;99.90
21805;DHT22;11064;47.102;15.452;2023-09-19T10:32:22;23.10;99.90
21805;DHT22;11064;47.102;15.452;2023-09-19T10:34:49;23.40;99.90
21805;DHT22;11064;47.102;15.452;2023-09-19T10:37:20;23.50;99.90
21805;DHT22;11064;47.102;15.452;2023-09-19T10:39:48;23.70;99.90
21805;DHT22;11064;47.102;15.452;2023-09-19T10:42:19;23.90;99.90
21805;DHT22;11064;47.102;15.452;2023-09-19T10:44:47;23.80;99.90
21805;DHT22;11064;47.102;15.452;2023-09-19T10:47:19;23.90;99.90
21805;DHT22;11064;47.102;15.452;2023-09-19T10:49:47;23.70;99.90
21805;DHT22;11064;47.102;15.452;2023-09-19T10:52:15;23.40;99.90
21805;DHT22;11064;47.102;15.452;2023-09-19T10:54:53;23.00;99.90
21805;DHT22;11064;47.102;15.452;2023-09-19T10:57:22;23.00;99.90
21805;DHT22;11064;47.102;15.452;2023-09-19T11:00:06;23.00;99.90
21805;DHT22;11064;47.102;15.452;2023-09-19T11:08:55;23.80;99.90
21805;DHT22;11064;47.102;15.452;2023-09-19T11:11:42;24.20;99.90
21805;DHT22;11064;47.102;15.452;2023-09-19T11:14:28;24.30;99.90
21805;DHT22;11064;47.102;15.452;2023-09-19T11:30:46;24.20;99.90
21805;DHT22;11064;47.102;15.452;2023-09-19T11:33:31;24.10;99.90
21805;DHT22;11064;47.102;15.452;2023-09-19T11:36:05;23.80;99.90
21805;DHT22;11064;47.102;15.452;2023-09-19T11:43:48;23.70;99.90
21805;DHT22;11064;47.102;15.452;2023-09-19T11:46:19;23.50;99.90
21805;DHT22;11064;47.102;15.452;2023-09-19T11:48:51;23.50;99.90
21805;DHT22;11064;47.102;15.452;2023-09-19T11:51:21;23.10;99.90
21805;DHT22;11064;47.102;15.452;2023-09-19T11:53:54;23.00;99.90
21805;DHT22;11064;47.102;15.452;2023-09-19T11:56:22;22.80;99.90
21805;DHT22;11064;47.102;15.452;2023-09-19T11:58:51;22.70;99.90
21805;DHT22;11064;47.102;15.452;2023-09-19T12:01:29;22.80;99.90
21805;DHT22;11064;47.102;15.452;2023-09-19T12:03:57;22.90;99.90
21805;DHT22;11064;47.102;15.452;2023-09-19T12:06:25;23.20;99.90
21805;DHT22;11064;47.102;15.452;2023-09-19T12:08:51;23.70;99.90
21805;DHT22;11064;47.102;15.452;2023-09-19T12:11:20;23.70;99.90
21805;DHT22;11064;47.102;15.452;2023-09-19T12:13:49;24.10;99.90
21805;DHT22;11064;47.102;15.452;2023-09-19T12:16:20;24.20;99.90
21805;DHT22;11064;47.102;15.452;2023-09-19T12:18:50;24.40;99.90
21805;DHT22;11064;47.102;15.452;2023-09-19T12:21:30;24.50;99.90
21805;DHT22;11064;47.102;15.452;2023-09-19T12:24:11;25.00;99.90
21805;DHT22;11064;47.102;15.452;2023-09-19T12:26:46;24.90;99.90
21805;DHT22;11064;47.102;15.452;2023-09-19T12:29:21;24.90;97.20
21805;DHT22;11064;47.102;15.452;2023-09-19T12:31:55;24.80;99.80
21805;DHT22;11064;47.102;15.452;2023-09-19T12:34:26;24.80;96.90
21805;DHT22;11064;47.102;15.452;2023-09-19T12:39:44;25.40;99.00
21805;DHT22;11064;47.102;15.452;2023-09-19T12:42:24;25.60;97.20
21805;DHT22;11064;47.102;15.452;2023-09-19T12:44:53;26.10;95.30
21805;DHT22;11064;47.102;15.452;2023-09-19T12:47:23;26.40;94.20
21805;DHT22;11064;47.102;15.452;2023-09-19T12:50:15;26.90;95.50
21805;DHT22;11064;47.102;15.452;2023-09-19T12:52:49;26.70;94.80
21805;DHT22;11064;47.102;15.452;2023-09-19T12:55:25;26.40;93.90
21805;DHT22;11064;47.102;15.452;2023-09-19T12:58:00;25.90;95.30
21805;DHT22;11064;47.102;15.452;2023-09-19T13:00:39;25.90;96.90
21805;DHT22;11064;47.102;15.452;2023-09-19T13:06:06;25.60;97.10
21805;DHT22;11064;47.102;15.452;2023-09-19T13:08:35;25.90;96.40
21805;DHT22;11064;47.102;15.452;2023-09-19T13:13:33;26.20;94.60
21805;DHT22;11064;47.102;15.452;2023-09-19T13:16:02;25.90;90.70
21805;DHT22;11064;47.102;15.452;2023-09-19T13:18:29;25.50;91.30
21805;DHT22;11064;47.102;15.452;2023-09-19T13:21:14;25.20;96.20
21805;DHT22;11064;47.102;15.452;2023-09-19T13:23:55;24.60;98.00
21805;DHT22;11064;47.102;15.452;2023-09-19T13:26:27;24.00;99.50
21805;DHT22;11064;47.102;15.452;2023-09-19T13:28:56;23.40;99.90
21805;DHT22;11064;47.102;15.452;2023-09-19T13:31:22;23.00;99.90
21805;DHT22;11064;47.102;15.452;2023-09-19T13:33:49;22.80;99.90
21805;DHT22;11064;47.102;15.452;2023-09-19T13:36:16;22.70;99.90
21805;DHT22;11064;47.102;15.452;2023-09-19T13:38:44;22.50;99.90
21805;DHT22;11064;47.102;15.452;2023-09-19T13:41:13;22.40;99.90
21805;DHT22;11064;47.102;15.452;2023-09-19T13:43:39;22.50;99.90
21805;DHT22;11064;47.102;15.452;2023-09-19T13:46:06;22.50;99.90
21805;DHT22;11064;47.102;15.452;2023-09-19T13:48:40;22.40;99.90
21805;DHT22;11064;47.102;15.452;2023-09-19T13:51:06;22.50;99.90
21805;DHT22;11064;47.102;15.452;2023-09-19T13:53:32;22.60;99.90
21805;DHT22;11064;47.102;15.452;2023-09-19T13:55:58;22.70;99.90
21805;DHT22;11064;47.102;15.452;2023-09-19T13:58:23;22.60;99.90
21805;DHT22;11064;47.102;15.452;2023-09-19T14:00:50;22.40;99.90
21805;DHT22;11064;47.102;15.452;2023-09-19T14:03:16;22.20;99.90
21805;DHT22;11064;47.102;15.452;2023-09-19T14:05:42;21.90;99.90
21805;DHT22;11064;47.102;15.452;2023-09-19T14:08:08;21.60;99.90
21805;DHT22;11064;47.102;15.452;2023-09-19T14:10:34;21.50;99.90
21805;DHT22;11064;47.102;15.452;2023-09-19T14:13:00;21.60;99.90
21805;DHT22;11064;47.102;15.452;2023-09-19T14:15:27;21.70;99.90
21805;DHT22;11064;47.102;15.452;2023-09-19T14:17:59;21.80;99.90
21805;DHT22;11064;47.102;15.452;2023-09-19T14:20:27;21.90;99.90
21805;DHT22;11064;47.102;15.452;2023-09-19T14:22:53;21.90;99.90
21805;DHT22;11064;47.102;15.452;2023-09-19T14:25:20;21.50;99.90
21805;DHT22;11064;47.102;15.452;2023-09-19T14:27:47;21.40;99.90
21805;DHT22;11064;47.102;15.452;2023-09-19T14:30:13;21.30;99.90
21805;DHT22;11064;47.102;15.452;2023-09-19T14:32:39;21.20;99.90
21805;DHT22;11064;47.102;15.452;2023-09-19T14:35:07;21.20;99.90
21805;DHT22;11064;47.102;15.452;2023-09-19T14:37:35;21.30;99.90
21805;DHT22;11064;47.102;15.452;2023-09-19T14:40:01;21.10;99.90
21805;DHT22;11064;47.102;15.452;2023-09-19T14:42:32;20.90;99.90
21805;DHT22;11064;47.102;15.452;2023-09-19T14:44:58;20.80;99.90
21805;DHT22;11064;47.102;15.452;2023-09-19T14:47:24;20.60;99.90
21805;DHT22;11064;47.102;15.452;2023-09-19T14:49:51;20.40;99.90
21805;DHT22;11064;47.102;15.452;2023-09-19T14:52:16;20.20;99.90
21805;DHT22;11064;47.102;15.452;2023-09-19T14:54:42;20.00;99.90
21805;DHT22;11064;47.102;15.452;2023-09-19T14:57:08;19.70;99.90
21805;DHT22;11064;47.102;15.452;2023-09-19T14:59:37;19.40;99.90
21805;DHT22;11064;47.102;15.452;2023-09-19T15:02:07;19.20;99.90
21805;DHT22;11064;47.102;15.452;2023-09-19T15:04:33;19.10;99.90
21805;DHT22;11064;47.102;15.452;2023-09-19T15:07:02;19.10;99.90
21805;DHT22;11064;47.102;15.452;2023-09-19T15:09:29;19.10;99.90
21805;DHT22;11064;47.102;15.452;2023-09-19T15:11:57;19.00;99.90
21805;DHT22;11064;47.102;15.452;2023-09-19T15:14:24;19.00;99.90
21805;DHT22;11064;47.102;15.452;2023-09-19T15:16:55;18.90;99.90
21805;DHT22;11064;47.102;15.452;2023-09-19T15:19:21;19.00;99.90
21805;DHT22;11064;47.102;15.452;2023-09-19T15:21:48;19.10;99.90
21805;DHT22;11064;47.102;15.452;2023-09-19T15:24:15;19.20;99.90
21805;DHT22;11064;47.102;15.452;2023-09-19T15:26:43;19.30;99.90
21805;DHT22;11064;47.102;15.452;2023-09-19T15:29:11;19.40;99.90
21805;DHT22;11064;47.102;15.452;2023-09-19T15:31:37;19.50;99.90
21805;DHT22;11064;47.102;15.452;2023-09-19T15:34:04;19.70;99.90
21805;DHT22;11064;47.102;15.452;2023-09-19T15:36:31;19.80;99.90
21805;DHT22;11064;47.102;15.452;2023-09-19T15:39:05;19.80;99.90
21805;DHT22;11064;47.102;15.452;2023-09-19T15:41:35;19.70;99.90
21805;DHT22;11064;47.102;15.452;2023-09-19T15:44:04;19.70;99.90
21805;DHT22;11064;47.102;15.452;2023-09-19T15:46:32;19.70;99.90
21805;DHT22;11064;47.102;15.452;2023-09-19T15:49:02;19.70;99.90
21805;DHT22;11064;47.102;15.452;2023-09-19T15:51:28;19.80;99.90
21805;DHT22;11064;47.102;15.452;2023-09-19T15:53:56;19.80;99.90
21805;DHT22;11064;47.102;15.452;2023-09-19T15:56:23;19.90;99.90
21805;DHT22;11064;47.102;15.452;2023-09-19T15:58:54;19.90;99.90
21805;DHT22;11064;47.102;15.452;2023-09-19T16:01:21;19.90;99.90
21805;DHT22;11064;47.102;15.452;2023-09-19T16:03:53;19.90;99.90
21805;DHT22;11064;47.102;15.452;2023-09-19T16:06:23;20.00;99.90
21805;DHT22;11064;47.102;15.452;2023-09-19T16:08:51;20.00;99.90
21805;DHT22;11064;47.102;15.452;2023-09-19T16:11:18;20.10;99.90
21805;DHT22;11064;47.102;15.452;2023-09-19T16:13:47;20.20;99.90
21805;DHT22;11064;47.102;15.452;2023-09-19T16:16:14;20.30;99.90
21805;DHT22;11064;47.102;15.452;2023-09-19T16:18:59;20.40;99.90
21805;DHT22;11064;47.102;15.452;2023-09-19T16:21:32;20.30;99.90
21805;DHT22;11064;47.102;15.452;2023-09-19T16:24:00;20.20;99.90
21805;DHT22;11064;47.102;15.452;2023-09-19T16:26:27;20.00;99.90
21805;DHT22;11064;47.102;15.452;2023-09-19T16:28:59;19.70;99.90
21805;DHT22;11064;47.102;15.452;2023-09-19T16:31:29;19.40;99.90
21805;DHT22;11064;47.102;15.452;2023-09-19T16:33:57;19.10;99.90
21805;DHT22;11064;47.102;15.452;2023-09-19T16:36:25;18.80;99.90
21805;DHT22;11064;47.102;15.452;2023-09-19T16:38:51;18.70;99.90
21805;DHT22;11064;47.102;15.452;2023-09-19T16:41:19;18.50;99.90
21805;DHT22;11064;47.102;15.452;2023-09-19T16:43:46;18.40;99.90
21805;DHT22;11064;47.102;15.452;2023-09-19T16:46:13;18.20;99.90
21805;DHT22;11064;47.102;15.452;2023-09-19T16:48:43;18.10;99.90
21805;DHT22;11064;47.102;15.452;2023-09-19T16:51:13;18.00;99.90
21805;DHT22;11064;47.102;15.452;2023-09-19T16:53:40;17.80;99.90
21805;DHT22;11064;47.102;15.452;2023-09-19T16:56:12;17.80;99.90
21805;DHT22;11064;47.102;15.452;2023-09-19T16:58:42;17.60;99.90
21805;DHT22;11064;47.102;15.452;2023-09-19T17:01:09;17.60;99.90
21805;DHT22;11064;47.102;15.452;2023-09-19T17:03:42;17.50;99.90
21805;DHT22;11064;47.102;15.452;2023-09-19T17:06:13;17.40;99.90
21805;DHT22;11064;47.102;15.452;2023-09-19T17:08:43;17.30;99.90
21805;DHT22;11064;47.102;15.452;2023-09-19T17:11:12;17.20;99.90
21805;DHT22;11064;47.102;15.452;2023-09-19T17:13:40;17.10;99.90
21805;DHT22;11064;47.102;15.452;2023-09-19T17:16:13;17.10;99.90
21805;DHT22;11064;47.102;15.452;2023-09-19T17:18:50;17.00;99.90
21805;DHT22;11064;47.102;15.452;2023-09-19T17:21:17;16.90;99.90
21805;DHT22;11064;47.102;15.452;2023-09-19T17:23:43;16.90;99.90
21805;DHT22;11064;47.102;15.452;2023-09-19T17:26:12;16.90;99.90
21805;DHT22;11064;47.102;15.452;2023-09-19T17:28:41;17.00;99.90
21805;DHT22;11064;47.102;15.452;2023-09-19T17:31:12;16.90;99.90
21805;DHT22;11064;47.102;15.452;2023-09-19T17:33:41;16.90;99.90
21805;DHT22;11064;47.102;15.452;2023-09-19T17:36:14;16.80;99.90
21805;DHT22;11064;47.102;15.452;2023-09-19T17:38:45;16.70;99.90
21805;DHT22;11064;47.102;15.452;2023-09-19T17:41:12;16.60;99.90
21805;DHT22;11064;47.102;15.452;2023-09-19T17:43:45;16.50;99.90
21805;DHT22;11064;47.102;15.452;2023-09-19T17:46:13;16.50;99.90
21805;DHT22;11064;47.102;15.452;2023-09-19T17:48:43;16.50;99.90
21805;DHT22;11064;47.102;15.452;2023-09-19T17:51:12;16.40;99.90
21805;DHT22;11064;47.102;15.452;2023-09-19T17:53:40;16.30;99.90
21805;DHT22;11064;47.102;15.452;2023-09-19T17:56:08;16.30;99.90
21805;DHT22;11064;47.102;15.452;2023-09-19T17:58:36;16.30;99.90
21805;DHT22;11064;47.102;15.452;2023-09-19T18:01:17;16.20;99.90
21805;DHT22;11064;47.102;15.452;2023-09-19T18:03:46;16.20;99.90
21805;DHT22;11064;47.102;15.452;2023-09-19T18:06:14;16.20;99.90
21805;DHT22;11064;47.102;15.452;2023-09-19T18:08:42;16.10;99.90
21805;DHT22;11064;47.102;15.452;2023-09-19T18:11:14;16.10;99.90
21805;DHT22;11064;47.102;15.452;2023-09-19T18:13:46;16.00;99.90
21805;DHT22;11064;47.102;15.452;2023-09-19T18:16:14;16.00;99.90
21805;DHT22;11064;47.102;15.452;2023-09-19T18:18:43;16.10;99.90
21805;DHT22;11064;47.102;15.452;2023-09-19T18:21:16;16.20;99.90
21805;DHT22;11064;47.102;15.452;2023-09-19T18:23:58;16.20;99.90
21805;DHT22;11064;47.102;15.452;2023-09-19T18:26:30;16.20;99.90
21805;DHT22;11064;47.102;15.452;2023-09-19T18:28:56;16.30;99.90
21805;DHT22;11064;47.102;15.452;2023-09-19T18:31:24;16.20;99.90
21805;DHT22;11064;47.102;15.452;2023-09-19T18:33:50;16.20;99.90
21805;DHT22;11064;47.102;15.452;2023-09-19T18:36:18;16.10;99.90
21805;DHT22;11064;47.102;15.452;2023-09-19T18:38:47;16.10;99.90
21805;DHT22;11064;47.102;15.452;2023-09-19T18:41:14;15.90;99.90
21805;DHT22;11064;47.102;15.452;2023-09-19T18:43:41;15.90;99.90
21805;DHT22;11064;47.102;15.452;2023-09-19T18:46:08;15.80;99.90
21805;DHT22;11064;47.102;15.452;2023-09-19T18:48:36;15.80;99.90
21805;DHT22;11064;47.102;15.452;2023-09-19T18:51:05;15.90;99.90
21805;DHT22;11064;47.102;15.452;2023-09-19T18:53:36;15.90;99.90
21805;DHT22;11064;47.102;15.452;2023-09-19T18:56:07;15.90;99.90
21805;DHT22;11064;47.102;15.452;2023-09-19T18:58:34;15.90;99.90
21805;DHT22;11064;47.102;15.452;2023-09-19T19:01:05;15.90;99.90
21805;DHT22;11064;47.102;15.452;2023-09-19T19:03:32;15.90;99.90
21805;DHT22;11064;47.102;15.452;2023-09-19T19:06:10;16.00;99.90
21805;DHT22;11064;47.102;15.452;2023-09-19T19:08:38;16.00;99.90
21805;DHT22;11064;47.102;15.452;2023-09-19T19:11:10;16.10;99.90
21805;DHT22;11064;47.102;15.452;2023-09-19T19:13:38;16.00;99.90
21805;DHT22;11064;47.102;15.452;2023-09-19T19:16:05;16.00;99.90
21805;DHT22;11064;47.102;15.452;2023-09-19T19:18:37;16.00;99.90
21805;DHT22;11064;47.102;15.452;2023-09-19T19:21:05;15.90;99.90
21805;DHT22;11064;47.102;15.452;2023-09-19T19:23:33;15.80;99.90
21805;DHT22;11064;47.102;15.452;2023-09-19T19:26:05;15.80;99.90
21805;DHT22;11064;47.102;15.452;2023-09-19T19:28:35;15.70;99.90
21805;DHT22;11064;47.102;15.452;2023-09-19T19:31:07;15.50;99.90
21805;DHT22;11064;47.102;15.452;2023-09-19T19:33:36;15.50;99.90
21805;DHT22;11064;47.102;15.452;2023-09-19T19:36:08;15.50;99.90
21805;DHT22;11064;47.102;15.452;2023-09-19T19:38:36;15.40;99.90
21805;DHT22;11064;47.102;15.452;2023-09-19T19:41:03;15.50;99.90
21805;DHT22;11064;47.102;15.452;2023-09-19T19:43:36;15.50;99.90
21805;DHT22;11064;47.102;15.452;2023-09-19T19:46:04;15.60;99.90
21805;DHT22;11064;47.102;15.452;2023-09-19T19:48:31;15.70;99.90
21805;DHT22;11064;47.102;15.452;2023-09-19T19:50:58;15.80;99.90
21805;DHT22;11064;47.102;15.452;2023-09-19T19:53:25;15.80;99.90
21805;DHT22;11064;47.102;15.452;2023-09-19T19:55:52;15.80;99.90
21805;DHT22;11064;47.102;15.452;2023-09-19T19:58:19;15.80;99.90
21805;DHT22;11064;47.102;15.452;2023-09-19T20:00:55;15.80;99.90
21805;DHT22;11064;47.102;15.452;2023-09-19T20:03:26;15.70;99.90
21805;DHT22;11064;47.102;15.452;2023-09-19T20:05:53;15.70;99.90
21805;DHT22;11064;47.102;15.452;2023-09-19T20:08:29;15.70;99.90
21805;DHT22;11064;47.102;15.452;2023-09-19T20:11:12;15.70;99.90